sensor_id;sensor_type;location;lat;lon;timestamp;P1;durP1;ratioP1;P2;durP2;ratioP2
43606;SDS011;29197;44.788;10.366;2023-07-13T00:00:26;4.22;;;2.15;;
43606;SDS011;29197;44.788;10.366;2023-07-13T00:03:15;6.72;;;2.33;;
43606;SDS011;29197;44.788;10.366;2023-07-13T00:06:04;7.65;;;1.90;;
43606;SDS011;29197;44.788;10.366;2023-07-13T00:08:54;4.28;;;2.13;;
43606;SDS011;29197;44.788;10.366;2023-07-13T00:11:43;9.00;;;1.83;;
43606;SDS011;29197;44.788;10.366;2023-07-13T00:14:34;4.85;;;1.70;;
43606;SDS011;29197;44.788;10.366;2023-07-13T00:17:22;6.75;;;1.67;;
43606;SDS011;29197;44.788;10.366;2023-07-13T00:20:11;10.52;;;1.52;;
43606;SDS011;29197;44.788;10.366;2023-07-13T00:23:00;5.68;;;1.20;;
43606;SDS011;29197;44.788;10.366;2023-07-13T00:25:50;3.97;;;1.35;;
43606;SDS011;29197;44.788;10.366;2023-07-13T00:28:39;3.55;;;1.00;;
43606;SDS011;29197;44.788;10.366;2023-07-13T00:31:28;2.08;;;1.00;;
43606;SDS011;29197;44.788;10.366;2023-07-13T00:34:17;2.92;;;1.30;;
43606;SDS011;29197;44.788;10.366;2023-07-13T00:37:06;5.32;;;1.27;;
43606;SDS011;29197;44.788;10.366;2023-07-13T00:39:55;2.75;;;1.20;;
43606;SDS011;29197;44.788;10.366;2023-07-13T00:42:45;1.90;;;0.98;;
43606;SDS011;29197;44.788;10.366;2023-07-13T00:49:01;1.58;;;0.98;;
43606;SDS011;29197;44.788;10.366;2023-07-13T00:51:53;2.08;;;1.00;;
43606;SDS011;29197;44.788;10.366;2023-07-13T00:54:45;2.65;;;1.40;;
43606;SDS011;29197;44.788;10.366;2023-07-13T00:57:35;2.00;;;1.30;;
43606;SDS011;29197;44.788;10.366;2023-07-13T01:00:25;1.65;;;0.85;;
43606;SDS011;29197;44.788;10.366;2023-07-13T01:03:15;2.78;;;0.93;;
43606;SDS011;29197;44.788;10.366;2023-07-13T01:06:04;3.33;;;1.02;;
43606;SDS011;29197;44.788;10.366;2023-07-13T01:08:53;3.40;;;1.13;;
43606;SDS011;29197;44.788;10.366;2023-07-13T01:11:44;2.70;;;1.13;;
43606;SDS011;29197;44.788;10.366;2023-07-13T01:14:33;2.40;;;1.02;;
43606;SDS011;29197;44.788;10.366;2023-07-13T01:17:22;4.63;;;1.00;;
43606;SDS011;29197;44.788;10.366;2023-07-13T01:20:12;4.63;;;1.25;;
43606;SDS011;29197;44.788;10.366;2023-07-13T01:23:02;3.88;;;1.20;;
43606;SDS011;29197;44.788;10.366;2023-07-13T01:25:51;3.35;;;1.55;;
43606;SDS011;29197;44.788;10.366;2023-07-13T01:28:41;4.38;;;1.65;;
43606;SDS011;29197;44.788;10.366;2023-07-13T01:31:30;3.45;;;1.33;;
43606;SDS011;29197;44.788;10.366;2023-07-13T01:34:19;2.83;;;1.45;;
43606;SDS011;29197;44.788;10.366;2023-07-13T01:37:07;3.53;;;1.20;;
43606;SDS011;29197;44.788;10.366;2023-07-13T01:39:58;5.07;;;1.65;;
43606;SDS011;29197;44.788;10.366;2023-07-13T01:42:47;2.90;;;1.30;;
43606;SDS011;29197;44.788;10.366;2023-07-13T01:45:35;3.85;;;1.02;;
43606;SDS011;29197;44.788;10.366;2023-07-13T01:48:24;7.18;;;1.20;;
43606;SDS011;29197;44.788;10.366;2023-07-13T01:51:13;2.10;;;1.25;;
43606;SDS011;29197;44.788;10.366;2023-07-13T01:54:02;8.77;;;1.38;;
43606;SDS011;29197;44.788;10.366;2023-07-13T01:56:52;3.10;;;1.52;;
43606;SDS011;29197;44.788;10.366;2023-07-13T01:59:40;4.65;;;1.60;;
43606;SDS011;29197;44.788;10.366;2023-07-13T02:02:29;4.22;;;1.35;;
43606;SDS011;29197;44.788;10.366;2023-07-13T02:05:18;15.25;;;2.40;;
43606;SDS011;29197;44.788;10.366;2023-07-13T02:08:07;1.00;;;0.90;;
43606;SDS011;29197;44.788;10.366;2023-07-13T02:10:55;2.72;;;1.27;;
43606;SDS011;29197;44.788;10.366;2023-07-13T02:13:45;4.10;;;1.45;;
43606;SDS011;29197;44.788;10.366;2023-07-13T02:16:34;4.80;;;1.13;;
43606;SDS011;29197;44.788;10.366;2023-07-13T02:19:23;4.90;;;1.35;;
43606;SDS011;29197;44.788;10.366;2023-07-13T02:22:11;2.05;;;1.23;;
43606;SDS011;29197;44.788;10.366;2023-07-13T02:25:00;2.03;;;1.20;;
43606;SDS011;29197;44.788;10.366;2023-07-13T02:27:49;2.75;;;1.30;;
43606;SDS011;29197;44.788;10.366;2023-07-13T02:30:39;4.78;;;1.10;;
43606;SDS011;29197;44.788;10.366;2023-07-13T02:33:28;2.47;;;1.42;;
43606;SDS011;29197;44.788;10.366;2023-07-13T02:36:16;2.97;;;1.25;;
43606;SDS011;29197;44.788;10.366;2023-07-13T02:39:05;3.85;;;1.48;;
43606;SDS011;29197;44.788;10.366;2023-07-13T02:41:54;2.08;;;1.13;;
43606;SDS011;29197;44.788;10.366;2023-07-13T02:44:42;2.00;;;0.98;;
43606;SDS011;29197;44.788;10.366;2023-07-13T02:47:33;2.13;;;1.10;;
43606;SDS011;29197;44.788;10.366;2023-07-13T02:50:21;4.30;;;1.30;;
43606;SDS011;29197;44.788;10.366;2023-07-13T02:53:10;6.18;;;1.00;;
43606;SDS011;29197;44.788;10.366;2023-07-13T02:55:59;3.15;;;1.42;;
43606;SDS011;29197;44.788;10.366;2023-07-13T02:58:48;4.68;;;1.23;;
43606;SDS011;29197;44.788;10.366;2023-07-13T03:01:36;3.63;;;1.27;;
43606;SDS011;29197;44.788;10.366;2023-07-13T03:04:26;1.45;;;1.00;;
43606;SDS011;29197;44.788;10.366;2023-07-13T03:07:15;1.55;;;1.23;;
43606;SDS011;29197;44.788;10.366;2023-07-13T03:10:04;2.78;;;1.30;;
43606;SDS011;29197;44.788;10.366;2023-07-13T03:12:53;1.65;;;1.20;;
43606;SDS011;29197;44.788;10.366;2023-07-13T03:15:42;3.40;;;1.42;;
43606;SDS011;29197;44.788;10.366;2023-07-13T03:18:31;2.58;;;1.17;;
43606;SDS011;29197;44.788;10.366;2023-07-13T03:21:21;4.88;;;1.48;;
43606;SDS011;29197;44.788;10.366;2023-07-13T03:24:09;3.15;;;1.40;;
43606;SDS011;29197;44.788;10.366;2023-07-13T03:26:58;3.67;;;1.40;;
43606;SDS011;29197;44.788;10.366;2023-07-13T03:29:48;4.70;;;1.90;;
43606;SDS011;29197;44.788;10.366;2023-07-13T03:32:37;3.30;;;1.75;;
43606;SDS011;29197;44.788;10.366;2023-07-13T03:35:25;4.53;;;1.90;;
43606;SDS011;29197;44.788;10.366;2023-07-13T03:38:15;2.88;;;1.45;;
43606;SDS011;29197;44.788;10.366;2023-07-13T03:41:04;3.58;;;1.48;;
43606;SDS011;29197;44.788;10.366;2023-07-13T03:43:52;3.45;;;1.40;;
43606;SDS011;29197;44.788;10.366;2023-07-13T03:46:41;3.83;;;1.75;;
43606;SDS011;29197;44.788;10.366;2023-07-13T03:49:30;3.30;;;1.42;;
43606;SDS011;29197;44.788;10.366;2023-07-13T03:52:18;2.05;;;1.52;;
43606;SDS011;29197;44.788;10.366;2023-07-13T03:55:09;3.88;;;1.35;;
43606;SDS011;29197;44.788;10.366;2023-07-13T03:57:58;4.38;;;1.50;;
43606;SDS011;29197;44.788;10.366;2023-07-13T04:00:48;3.65;;;1.90;;
43606;SDS011;29197;44.788;10.366;2023-07-13T04:03:37;4.25;;;1.40;;
43606;SDS011;29197;44.788;10.366;2023-07-13T04:06:26;3.35;;;1.55;;
43606;SDS011;29197;44.788;10.366;2023-07-13T04:09:17;7.22;;;1.40;;
43606;SDS011;29197;44.788;10.366;2023-07-13T04:12:07;2.35;;;1.42;;
43606;SDS011;29197;44.788;10.366;2023-07-13T04:14:56;3.20;;;1.45;;
43606;SDS011;29197;44.788;10.366;2023-07-13T04:17:44;2.70;;;1.90;;
43606;SDS011;29197;44.788;10.366;2023-07-13T04:20:33;4.22;;;1.15;;
43606;SDS011;29197;44.788;10.366;2023-07-13T04:23:22;3.72;;;1.67;;
43606;SDS011;29197;44.788;10.366;2023-07-13T04:26:11;2.47;;;1.40;;
43606;SDS011;29197;44.788;10.366;2023-07-13T04:29:01;4.35;;;1.60;;
43606;SDS011;29197;44.788;10.366;2023-07-13T04:31:51;2.47;;;1.40;;
43606;SDS011;29197;44.788;10.366;2023-07-13T04:34:40;4.18;;;1.50;;
43606;SDS011;29197;44.788;10.366;2023-07-13T04:37:29;3.63;;;1.42;;
43606;SDS011;29197;44.788;10.366;2023-07-13T04:40:17;2.35;;;1.65;;
43606;SDS011;29197;44.788;10.366;2023-07-13T04:43:06;3.30;;;1.10;;
43606;SDS011;29197;44.788;10.366;2023-07-13T04:45:57;4.28;;;1.35;;
43606;SDS011;29197;44.788;10.366;2023-07-13T04:48:45;3.33;;;1.50;;
43606;SDS011;29197;44.788;10.366;2023-07-13T04:51:37;6.15;;;1.50;;
43606;SDS011;29197;44.788;10.366;2023-07-13T04:54:26;3.20;;;1.75;;
43606;SDS011;29197;44.788;10.366;2023-07-13T04:57:14;8.15;;;1.60;;
43606;SDS011;29197;44.788;10.366;2023-07-13T05:00:03;4.45;;;2.10;;
43606;SDS011;29197;44.788;10.366;2023-07-13T05:02:55;4.03;;;1.88;;
43606;SDS011;29197;44.788;10.366;2023-07-13T05:05:54;2.15;;;1.35;;
43606;SDS011;29197;44.788;10.366;2023-07-13T05:08:43;3.80;;;1.80;;
43606;SDS011;29197;44.788;10.366;2023-07-13T05:11:32;5.15;;;2.35;;
43606;SDS011;29197;44.788;10.366;2023-07-13T05:14:20;2.25;;;1.50;;
43606;SDS011;29197;44.788;10.366;2023-07-13T05:17:09;3.60;;;1.90;;
43606;SDS011;29197;44.788;10.366;2023-07-13T05:19:59;5.18;;;2.00;;
43606;SDS011;29197;44.788;10.366;2023-07-13T05:22:48;3.60;;;1.65;;
43606;SDS011;29197;44.788;10.366;2023-07-13T05:25:37;2.40;;;1.70;;
43606;SDS011;29197;44.788;10.366;2023-07-13T05:28:27;2.55;;;1.38;;
43606;SDS011;29197;44.788;10.366;2023-07-13T05:31:16;4.13;;;1.58;;
43606;SDS011;29197;44.788;10.366;2023-07-13T05:34:05;2.45;;;1.75;;
43606;SDS011;29197;44.788;10.366;2023-07-13T05:36:55;4.75;;;1.80;;
43606;SDS011;29197;44.788;10.366;2023-07-13T05:39:43;4.30;;;1.40;;
43606;SDS011;29197;44.788;10.366;2023-07-13T05:42:32;2.72;;;1.15;;
43606;SDS011;29197;44.788;10.366;2023-07-13T05:45:21;3.97;;;2.08;;
43606;SDS011;29197;44.788;10.366;2023-07-13T05:48:09;3.17;;;1.27;;
43606;SDS011;29197;44.788;10.366;2023-07-13T05:50:58;1.92;;;1.10;;
43606;SDS011;29197;44.788;10.366;2023-07-13T05:53:48;2.35;;;1.70;;
43606;SDS011;29197;44.788;10.366;2023-07-13T05:56:37;2.92;;;1.13;;
43606;SDS011;29197;44.788;10.366;2023-07-13T05:59:26;4.68;;;1.60;;
43606;SDS011;29197;44.788;10.366;2023-07-13T06:02:14;6.80;;;2.60;;
43606;SDS011;29197;44.788;10.366;2023-07-13T06:05:04;4.03;;;1.92;;
43606;SDS011;29197;44.788;10.366;2023-07-13T06:07:52;5.45;;;1.85;;
43606;SDS011;29197;44.788;10.366;2023-07-13T06:10:42;6.72;;;1.45;;
43606;SDS011;29197;44.788;10.366;2023-07-13T06:13:31;3.42;;;1.83;;
43606;SDS011;29197;44.788;10.366;2023-07-13T06:16:20;3.40;;;1.40;;
43606;SDS011;29197;44.788;10.366;2023-07-13T06:19:09;2.20;;;1.38;;
43606;SDS011;29197;44.788;10.366;2023-07-13T06:21:57;5.32;;;2.17;;
43606;SDS011;29197;44.788;10.366;2023-07-13T06:24:46;5.05;;;1.80;;
43606;SDS011;29197;44.788;10.366;2023-07-13T06:27:36;6.40;;;1.95;;
43606;SDS011;29197;44.788;10.366;2023-07-13T06:30:24;6.00;;;1.80;;
43606;SDS011;29197;44.788;10.366;2023-07-13T06:33:13;4.88;;;1.92;;
43606;SDS011;29197;44.788;10.366;2023-07-13T06:36:02;4.68;;;1.75;;
43606;SDS011;29197;44.788;10.366;2023-07-13T06:38:51;4.88;;;2.03;;
43606;SDS011;29197;44.788;10.366;2023-07-13T06:41:40;2.53;;;2.00;;
43606;SDS011;29197;44.788;10.366;2023-07-13T06:44:30;4.03;;;1.80;;
43606;SDS011;29197;44.788;10.366;2023-07-13T06:47:19;5.90;;;2.58;;
43606;SDS011;29197;44.788;10.366;2023-07-13T06:50:08;4.10;;;2.05;;
43606;SDS011;29197;44.788;10.366;2023-07-13T06:52:58;3.40;;;1.98;;
43606;SDS011;29197;44.788;10.366;2023-07-13T06:55:47;3.28;;;1.85;;
43606;SDS011;29197;44.788;10.366;2023-07-13T06:58:36;3.75;;;1.95;;
43606;SDS011;29197;44.788;10.366;2023-07-13T07:01:26;4.72;;;1.67;;
43606;SDS011;29197;44.788;10.366;2023-07-13T07:04:15;3.70;;;2.72;;
43606;SDS011;29197;44.788;10.366;2023-07-13T07:07:04;6.82;;;2.50;;
43606;SDS011;29197;44.788;10.366;2023-07-13T07:09:52;5.45;;;2.10;;
43606;SDS011;29197;44.788;10.366;2023-07-13T07:12:41;3.90;;;1.80;;
43606;SDS011;29197;44.788;10.366;2023-07-13T07:15:29;3.42;;;1.65;;
43606;SDS011;29197;44.788;10.366;2023-07-13T07:18:19;2.83;;;1.33;;
43606;SDS011;29197;44.788;10.366;2023-07-13T07:21:08;7.88;;;2.35;;
43606;SDS011;29197;44.788;10.366;2023-07-13T07:23:57;3.95;;;2.25;;
43606;SDS011;29197;44.788;10.366;2023-07-13T07:26:48;3.65;;;1.85;;
43606;SDS011;29197;44.788;10.366;2023-07-13T07:29:40;7.43;;;1.70;;
43606;SDS011;29197;44.788;10.366;2023-07-13T07:32:34;3.28;;;2.35;;
43606;SDS011;29197;44.788;10.366;2023-07-13T07:35:27;5.40;;;2.78;;
43606;SDS011;29197;44.788;10.366;2023-07-13T07:38:21;5.40;;;1.80;;
43606;SDS011;29197;44.788;10.366;2023-07-13T07:41:11;2.88;;;1.88;;
43606;SDS011;29197;44.788;10.366;2023-07-13T07:44:03;5.07;;;2.25;;
43606;SDS011;29197;44.788;10.366;2023-07-13T07:46:54;15.32;;;4.63;;
43606;SDS011;29197;44.788;10.366;2023-07-13T07:49:43;13.48;;;4.05;;
43606;SDS011;29197;44.788;10.366;2023-07-13T07:52:33;5.20;;;2.53;;
43606;SDS011;29197;44.788;10.366;2023-07-13T07:55:22;4.88;;;2.42;;
43606;SDS011;29197;44.788;10.366;2023-07-13T07:58:15;6.90;;;2.63;;
43606;SDS011;29197;44.788;10.366;2023-07-13T08:01:24;8.73;;;2.72;;
43606;SDS011;29197;44.788;10.366;2023-07-13T08:04:16;5.82;;;2.17;;
43606;SDS011;29197;44.788;10.366;2023-07-13T08:07:07;6.15;;;2.10;;
43606;SDS011;29197;44.788;10.366;2023-07-13T08:09:58;6.97;;;2.80;;
43606;SDS011;29197;44.788;10.366;2023-07-13T08:12:47;7.32;;;3.58;;
43606;SDS011;29197;44.788;10.366;2023-07-13T08:15:39;13.38;;;3.60;;
43606;SDS011;29197;44.788;10.366;2023-07-13T08:18:27;15.77;;;10.05;;
43606;SDS011;29197;44.788;10.366;2023-07-13T08:21:17;15.57;;;8.48;;
43606;SDS011;29197;44.788;10.366;2023-07-13T08:24:07;13.25;;;6.95;;
43606;SDS011;29197;44.788;10.366;2023-07-13T08:26:57;10.98;;;5.97;;
43606;SDS011;29197;44.788;10.366;2023-07-13T08:29:47;18.67;;;8.45;;
43606;SDS011;29197;44.788;10.366;2023-07-13T08:32:36;15.73;;;7.90;;
43606;SDS011;29197;44.788;10.366;2023-07-13T08:35:25;18.88;;;8.35;;
43606;SDS011;29197;44.788;10.366;2023-07-13T08:38:14;14.65;;;7.13;;
43606;SDS011;29197;44.788;10.366;2023-07-13T08:43:59;15.93;;;6.88;;
43606;SDS011;29197;44.788;10.366;2023-07-13T08:46:50;12.60;;;6.22;;
43606;SDS011;29197;44.788;10.366;2023-07-13T08:49:40;11.18;;;5.80;;
43606;SDS011;29197;44.788;10.366;2023-07-13T08:52:30;12.30;;;4.97;;
43606;SDS011;29197;44.788;10.366;2023-07-13T08:55:21;9.13;;;4.15;;
43606;SDS011;29197;44.788;10.366;2023-07-13T08:58:11;7.18;;;3.67;;
43606;SDS011;29197;44.788;10.366;2023-07-13T09:01:03;12.55;;;3.95;;
43606;SDS011;29197;44.788;10.366;2023-07-13T09:03:57;6.63;;;2.95;;
43606;SDS011;29197;44.788;10.366;2023-07-13T09:06:49;6.95;;;3.08;;
43606;SDS011;29197;44.788;10.366;2023-07-13T09:09:43;5.50;;;3.15;;
43606;SDS011;29197;44.788;10.366;2023-07-13T09:12:38;5.70;;;3.55;;
43606;SDS011;29197;44.788;10.366;2023-07-13T09:15:29;10.32;;;2.80;;
43606;SDS011;29197;44.788;10.366;2023-07-13T09:18:21;4.25;;;2.40;;
43606;SDS011;29197;44.788;10.366;2023-07-13T09:21:13;7.88;;;2.70;;
43606;SDS011;29197;44.788;10.366;2023-07-13T09:24:19;3.88;;;2.60;;
43606;SDS011;29197;44.788;10.366;2023-07-13T09:27:17;6.63;;;2.65;;
43606;SDS011;29197;44.788;10.366;2023-07-13T09:30:17;3.42;;;2.35;;
43606;SDS011;29197;44.788;10.366;2023-07-13T09:33:12;4.70;;;2.45;;
43606;SDS011;29197;44.788;10.366;2023-07-13T09:36:05;6.53;;;2.60;;
43606;SDS011;29197;44.788;10.366;2023-07-13T09:39:05;3.08;;;2.42;;
43606;SDS011;29197;44.788;10.366;2023-07-13T09:42:00;7.35;;;3.70;;
43606;SDS011;29197;44.788;10.366;2023-07-13T09:44:53;12.48;;;4.10;;
43606;SDS011;29197;44.788;10.366;2023-07-13T09:47:42;5.32;;;2.30;;
43606;SDS011;29197;44.788;10.366;2023-07-13T09:50:31;10.13;;;3.80;;
43606;SDS011;29197;44.788;10.366;2023-07-13T09:53:22;7.55;;;3.45;;
43606;SDS011;29197;44.788;10.366;2023-07-13T09:56:20;5.10;;;3.53;;
43606;SDS011;29197;44.788;10.366;2023-07-13T09:59:17;4.78;;;2.83;;
43606;SDS011;29197;44.788;10.366;2023-07-13T10:02:22;10.88;;;4.10;;
43606;SDS011;29197;44.788;10.366;2023-07-13T10:05:13;9.63;;;4.43;;
43606;SDS011;29197;44.788;10.366;2023-07-13T10:08:03;6.05;;;3.63;;
43606;SDS011;29197;44.788;10.366;2023-07-13T10:10:58;9.82;;;3.15;;
43606;SDS011;29197;44.788;10.366;2023-07-13T10:13:50;7.47;;;2.58;;
43606;SDS011;29197;44.788;10.366;2023-07-13T10:16:42;4.88;;;2.30;;
43606;SDS011;29197;44.788;10.366;2023-07-13T10:19:32;4.63;;;2.35;;
43606;SDS011;29197;44.788;10.366;2023-07-13T12:14:41;5.68;;;3.13;;
43606;SDS011;29197;44.788;10.366;2023-07-13T12:17:30;8.07;;;2.92;;
43606;SDS011;29197;44.788;10.366;2023-07-13T12:20:23;8.02;;;3.20;;
43606;SDS011;29197;44.788;10.366;2023-07-13T12:23:14;6.72;;;2.72;;
43606;SDS011;29197;44.788;10.366;2023-07-13T12:26:09;6.05;;;2.65;;
43606;SDS011;29197;44.788;10.366;2023-07-13T12:29:00;5.40;;;2.40;;
43606;SDS011;29197;44.788;10.366;2023-07-13T12:31:54;7.32;;;3.10;;
43606;SDS011;29197;44.788;10.366;2023-07-13T12:34:50;5.95;;;2.67;;
43606;SDS011;29197;44.788;10.366;2023-07-13T12:37:41;5.95;;;2.35;;
43606;SDS011;29197;44.788;10.366;2023-07-13T12:40:32;5.05;;;2.72;;
43606;SDS011;29197;44.788;10.366;2023-07-13T12:43:23;5.75;;;2.95;;
43606;SDS011;29197;44.788;10.366;2023-07-13T12:46:16;11.05;;;3.60;;
43606;SDS011;29197;44.788;10.366;2023-07-13T12:49:08;7.40;;;3.10;;
43606;SDS011;29197;44.788;10.366;2023-07-13T12:52:10;7.65;;;2.55;;
43606;SDS011;29197;44.788;10.366;2023-07-13T12:55:04;10.00;;;2.80;;
43606;SDS011;29197;44.788;10.366;2023-07-13T12:57:57;5.63;;;2.67;;
43606;SDS011;29197;44.788;10.366;2023-07-13T13:00:50;8.27;;;2.97;;
43606;SDS011;29197;44.788;10.366;2023-07-13T13:03:45;5.07;;;2.40;;
43606;SDS011;29197;44.788;10.366;2023-07-13T13:06:37;6.93;;;2.50;;
43606;SDS011;29197;44.788;10.366;2023-07-13T13:09:27;8.55;;;2.90;;
43606;SDS011;29197;44.788;10.366;2023-07-13T13:12:16;7.75;;;2.90;;
43606;SDS011;29197;44.788;10.366;2023-07-13T13:15:05;6.35;;;2.45;;
43606;SDS011;29197;44.788;10.366;2023-07-13T13:17:55;4.47;;;2.20;;
43606;SDS011;29197;44.788;10.366;2023-07-13T13:20:45;7.68;;;2.78;;
43606;SDS011;29197;44.788;10.366;2023-07-13T13:23:35;6.63;;;2.83;;
43606;SDS011;29197;44.788;10.366;2023-07-13T13:26:25;9.52;;;2.65;;
43606;SDS011;29197;44.788;10.366;2023-07-13T13:29:14;5.95;;;2.92;;
43606;SDS011;29197;44.788;10.366;2023-07-13T13:32:04;7.60;;;2.58;;
43606;SDS011;29197;44.788;10.366;2023-07-13T13:34:53;8.50;;;3.65;;
43606;SDS011;29197;44.788;10.366;2023-07-13T13:37:42;5.85;;;2.05;;
43606;SDS011;29197;44.788;10.366;2023-07-13T13:40:32;5.35;;;3.20;;
43606;SDS011;29197;44.788;10.366;2023-07-13T13:43:22;9.27;;;2.80;;
43606;SDS011;29197;44.788;10.366;2023-07-13T13:46:14;8.80;;;2.80;;
43606;SDS011;29197;44.788;10.366;2023-07-13T13:49:03;8.85;;;3.95;;
43606;SDS011;29197;44.788;10.366;2023-07-13T13:51:53;7.70;;;3.17;;
43606;SDS011;29197;44.788;10.366;2023-07-13T13:54:42;7.28;;;3.38;;
43606;SDS011;29197;44.788;10.366;2023-07-13T13:57:33;8.32;;;3.60;;
43606;SDS011;29197;44.788;10.366;2023-07-13T14:00:22;10.25;;;3.30;;
43606;SDS011;29197;44.788;10.366;2023-07-13T14:03:13;12.93;;;3.42;;
43606;SDS011;29197;44.788;10.366;2023-07-13T14:06:03;10.25;;;3.72;;
43606;SDS011;29197;44.788;10.366;2023-07-13T14:08:52;5.75;;;2.95;;
43606;SDS011;29197;44.788;10.366;2023-07-13T14:11:42;8.02;;;3.10;;
43606;SDS011;29197;44.788;10.366;2023-07-13T14:14:36;6.85;;;3.30;;
43606;SDS011;29197;44.788;10.366;2023-07-13T14:17:25;8.95;;;2.80;;
43606;SDS011;29197;44.788;10.366;2023-07-13T14:20:15;7.13;;;3.35;;
43606;SDS011;29197;44.788;10.366;2023-07-13T14:23:04;10.65;;;3.50;;
43606;SDS011;29197;44.788;10.366;2023-07-13T14:25:53;6.95;;;3.05;;
43606;SDS011;29197;44.788;10.366;2023-07-13T14:28:43;6.22;;;3.05;;
43606;SDS011;29197;44.788;10.366;2023-07-13T14:31:33;11.02;;;3.72;;
43606;SDS011;29197;44.788;10.366;2023-07-13T14:34:22;7.72;;;3.00;;
43606;SDS011;29197;44.788;10.366;2023-07-13T14:37:12;7.45;;;3.08;;
43606;SDS011;29197;44.788;10.366;2023-07-13T14:40:04;6.70;;;3.00;;
43606;SDS011;29197;44.788;10.366;2023-07-13T14:42:55;6.82;;;3.33;;
43606;SDS011;29197;44.788;10.366;2023-07-13T14:45:44;7.20;;;3.47;;
43606;SDS011;29197;44.788;10.366;2023-07-13T14:48:35;9.32;;;3.33;;
43606;SDS011;29197;44.788;10.366;2023-07-13T14:51:24;7.35;;;2.80;;
43606;SDS011;29197;44.788;10.366;2023-07-13T14:54:13;8.40;;;3.08;;
43606;SDS011;29197;44.788;10.366;2023-07-13T14:57:02;6.13;;;2.80;;
43606;SDS011;29197;44.788;10.366;2023-07-13T14:59:51;6.47;;;3.05;;
43606;SDS011;29197;44.788;10.366;2023-07-13T15:02:40;8.80;;;3.85;;
43606;SDS011;29197;44.788;10.366;2023-07-13T15:05:31;6.03;;;3.60;;
43606;SDS011;29197;44.788;10.366;2023-07-13T15:08:20;6.03;;;3.28;;
43606;SDS011;29197;44.788;10.366;2023-07-13T15:11:09;9.15;;;3.50;;
43606;SDS011;29197;44.788;10.366;2023-07-13T15:13:59;7.47;;;3.30;;
43606;SDS011;29197;44.788;10.366;2023-07-13T15:16:49;6.35;;;3.00;;
43606;SDS011;29197;44.788;10.366;2023-07-13T15:19:38;9.25;;;3.47;;
43606;SDS011;29197;44.788;10.366;2023-07-13T15:22:29;6.55;;;3.38;;
43606;SDS011;29197;44.788;10.366;2023-07-13T15:25:19;10.13;;;3.67;;
43606;SDS011;29197;44.788;10.366;2023-07-13T15:28:08;9.55;;;3.30;;
43606;SDS011;29197;44.788;10.366;2023-07-13T15:30:57;6.97;;;3.10;;
43606;SDS011;29197;44.788;10.366;2023-07-13T15:33:45;6.75;;;3.15;;
43606;SDS011;29197;44.788;10.366;2023-07-13T15:36:36;4.97;;;3.28;;
43606;SDS011;29197;44.788;10.366;2023-07-13T15:39:26;6.50;;;3.38;;
43606;SDS011;29197;44.788;10.366;2023-07-13T15:42:19;7.22;;;3.28;;
43606;SDS011;29197;44.788;10.366;2023-07-13T15:45:18;6.90;;;3.08;;
43606;SDS011;29197;44.788;10.366;2023-07-13T15:48:12;5.43;;;3.17;;
43606;SDS011;29197;44.788;10.366;2023-07-13T15:51:02;6.35;;;3.20;;
43606;SDS011;29197;44.788;10.366;2023-07-13T15:53:52;12.60;;;3.55;;
43606;SDS011;29197;44.788;10.366;2023-07-13T15:56:43;5.97;;;3.40;;
43606;SDS011;29197;44.788;10.366;2023-07-13T15:59:32;7.78;;;3.20;;
43606;SDS011;29197;44.788;10.366;2023-07-13T16:02:21;10.45;;;3.80;;
43606;SDS011;29197;44.788;10.366;2023-07-13T16:05:10;9.32;;;3.63;;
43606;SDS011;29197;44.788;10.366;2023-07-13T16:07:58;7.22;;;2.95;;
43606;SDS011;29197;44.788;10.366;2023-07-13T16:10:47;4.82;;;3.20;;
43606;SDS011;29197;44.788;10.366;2023-07-13T16:13:38;8.25;;;3.42;;
43606;SDS011;29197;44.788;10.366;2023-07-13T16:16:28;11.00;;;3.55;;
43606;SDS011;29197;44.788;10.366;2023-07-13T16:19:17;11.30;;;3.60;;
43606;SDS011;29197;44.788;10.366;2023-07-13T16:22:15;8.70;;;3.00;;
43606;SDS011;29197;44.788;10.366;2023-07-13T16:25:12;9.70;;;3.67;;
43606;SDS011;29197;44.788;10.366;2023-07-13T16:28:01;5.55;;;3.00;;
43606;SDS011;29197;44.788;10.366;2023-07-13T16:30:52;7.22;;;2.80;;
43606;SDS011;29197;44.788;10.366;2023-07-13T16:33:41;6.90;;;2.95;;
43606;SDS011;29197;44.788;10.366;2023-07-13T16:36:30;10.40;;;4.25;;
43606;SDS011;29197;44.788;10.366;2023-07-13T16:39:20;6.40;;;2.90;;
43606;SDS011;29197;44.788;10.366;2023-07-13T16:42:10;9.73;;;4.40;;
43606;SDS011;29197;44.788;10.366;2023-07-13T16:44:59;11.32;;;4.40;;
43606;SDS011;29197;44.788;10.366;2023-07-13T16:47:49;6.18;;;3.30;;
43606;SDS011;29197;44.788;10.366;2023-07-13T16:50:38;12.55;;;4.05;;
43606;SDS011;29197;44.788;10.366;2023-07-13T16:53:29;7.35;;;2.90;;
43606;SDS011;29197;44.788;10.366;2023-07-13T16:56:19;6.72;;;3.13;;
43606;SDS011;29197;44.788;10.366;2023-07-13T16:59:09;8.13;;;3.22;;
43606;SDS011;29197;44.788;10.366;2023-07-13T17:02:01;9.75;;;3.42;;
43606;SDS011;29197;44.788;10.366;2023-07-13T17:04:52;7.88;;;3.00;;
43606;SDS011;29197;44.788;10.366;2023-07-13T17:07:41;7.53;;;2.63;;
43606;SDS011;29197;44.788;10.366;2023-07-13T17:10:33;5.72;;;2.78;;
43606;SDS011;29197;44.788;10.366;2023-07-13T17:13:21;10.57;;;2.63;;
43606;SDS011;29197;44.788;10.366;2023-07-13T17:16:11;7.68;;;2.75;;
43606;SDS011;29197;44.788;10.366;2023-07-13T17:19:01;4.97;;;2.88;;
43606;SDS011;29197;44.788;10.366;2023-07-13T17:21:53;9.15;;;2.20;;
43606;SDS011;29197;44.788;10.366;2023-07-13T17:24:42;4.57;;;2.58;;
43606;SDS011;29197;44.788;10.366;2023-07-13T17:27:32;6.05;;;2.97;;
43606;SDS011;29197;44.788;10.366;2023-07-13T17:30:20;5.97;;;2.60;;
43606;SDS011;29197;44.788;10.366;2023-07-13T17:33:14;6.72;;;2.97;;
43606;SDS011;29197;44.788;10.366;2023-07-13T17:36:15;9.45;;;3.30;;
43606;SDS011;29197;44.788;10.366;2023-07-13T17:39:08;7.18;;;3.35;;
43606;SDS011;29197;44.788;10.366;2023-07-13T17:42:03;6.88;;;3.00;;
43606;SDS011;29197;44.788;10.366;2023-07-13T17:44:52;8.13;;;2.63;;
43606;SDS011;29197;44.788;10.366;2023-07-13T17:47:41;7.80;;;2.85;;
43606;SDS011;29197;44.788;10.366;2023-07-13T17:50:30;6.88;;;2.60;;
43606;SDS011;29197;44.788;10.366;2023-07-13T17:53:23;7.07;;;3.00;;
43606;SDS011;29197;44.788;10.366;2023-07-13T17:56:13;5.20;;;2.53;;
43606;SDS011;29197;44.788;10.366;2023-07-13T17:59:03;6.68;;;3.30;;
43606;SDS011;29197;44.788;10.366;2023-07-13T18:01:51;6.45;;;3.50;;
43606;SDS011;29197;44.788;10.366;2023-07-13T18:04:40;7.28;;;3.28;;
43606;SDS011;29197;44.788;10.366;2023-07-13T18:07:28;7.00;;;3.20;;
43606;SDS011;29197;44.788;10.366;2023-07-13T18:10:18;6.35;;;2.95;;
43606;SDS011;29197;44.788;10.366;2023-07-13T18:13:11;7.57;;;2.72;;
43606;SDS011;29197;44.788;10.366;2023-07-13T18:16:00;7.88;;;2.90;;
43606;SDS011;29197;44.788;10.366;2023-07-13T18:18:49;8.52;;;3.10;;
43606;SDS011;29197;44.788;10.366;2023-07-13T18:21:37;6.85;;;3.10;;
43606;SDS011;29197;44.788;10.366;2023-07-13T18:24:26;8.55;;;3.00;;
43606;SDS011;29197;44.788;10.366;2023-07-13T18:27:15;4.32;;;2.20;;
43606;SDS011;29197;44.788;10.366;2023-07-13T18:30:07;4.40;;;1.80;;
43606;SDS011;29197;44.788;10.366;2023-07-13T18:32:58;7.20;;;2.65;;
43606;SDS011;29197;44.788;10.366;2023-07-13T18:35:47;6.47;;;2.53;;
43606;SDS011;29197;44.788;10.366;2023-07-13T18:38:36;6.13;;;3.13;;
43606;SDS011;29197;44.788;10.366;2023-07-13T18:41:24;4.95;;;2.75;;
43606;SDS011;29197;44.788;10.366;2023-07-13T18:44:13;5.47;;;2.50;;
43606;SDS011;29197;44.788;10.366;2023-07-13T18:47:03;4.80;;;2.50;;